This is the latest recevied weather packets stored in our database for station/object VE2JJ-13. If no packets are shown the sender has not sent any weather packets the latest 10 day(s).
| Time | Temp. | Humidity | Pressure | Rain* | Wind** | Luminosity | Snow |
|---|---|---|---|---|---|---|---|
| 1778036161 | 12.22° C | 75% | 999.6 hPa | 0 mm | - | - | - |
| 1778035859 | 12.22° C | 75% | 999.6 hPa | 0 mm | - | - | - |
| 1778035558 | 12.78° C | 73% | 999.6 hPa | 0 mm | - | - | - |
| 1778035258 | 12.78° C | 73% | 999.7 hPa | 0 mm | - | - | - |
| 1778034932 | 12.78° C | 72% | 999.7 hPa | 0 mm | - | - | - |
| 1778034628 | 12.78° C | 74% | 999.7 hPa | 0 mm | - | - | - |
| 1778034331 | 12.78° C | 75% | 999.7 hPa | 0 mm | - | - | - |
| 1778034001 | 12.78° C | 74% | 999.7 hPa | 0 mm | - | - | - |
| 1778033698 | 13.33° C | 73% | 999.6 hPa | 0 mm | - | - | - |
| 1778033368 | 13.33° C | 72% | 999.6 hPa | 0 mm | - | - | - |
| 1778033043 | 13.33° C | 72% | 999.4 hPa | 0 mm | - | - | - |
| 1778032740 | 13.33° C | 71% | 999.4 hPa | 0 mm | - | - | - |
| 1778032409 | 13.33° C | 70% | 999.4 hPa | 0 mm | - | - | - |
| 1778032081 | 13.33° C | 69% | 999.1 hPa | 0 mm | - | - | - |
| 1778031779 | 13.33° C | 69% | 999.1 hPa | 0 mm | - | - | - |
| 1778031480 | 13.33° C | 70% | 999 hPa | 0 mm | - | - | - |
| 1778031178 | 13.89° C | 71% | 999 hPa | 0 mm | - | - | - |
| 1778030880 | 13.89° C | 71% | 998.9 hPa | 0 mm | - | - | - |
| 1778030552 | 13.89° C | 70% | 998.9 hPa | 0 mm | - | - | - |
| 1778030248 | 14.44° C | 69% | 998.9 hPa | 0 mm | - | - | - |
| 1778029950 | 15° C | 67% | 998.5 hPa | 0 mm | - | - | - |
| 1778029650 | 15.56° C | 63% | 998.5 hPa | 0 mm | - | - | - |
| 1778029319 | 16.11° C | 61% | 998 hPa | 0 mm | - | - | - |
| 1778028690 | 16.67° C | 57% | 997.8 hPa | 0 mm | - | - | - |
| 1778028388 | 16.67° C | 57% | 997.8 hPa | 0 mm | - | - | - |
* Rain latest hour (hover to see other rain measurements)
** Current wind speed in m/s (hover to see current wind gust speed)